This is the latest recevied weather packets stored in our database for station/object R1ZAAG-14. If no packets are shown the sender has not sent any weather packets the latest 10 day(s).
| Time | Temp. | Humidity | Pressure | Rain* | Wind** | Luminosity | Snow |
|---|---|---|---|---|---|---|---|
| 1778081187 | 5.56° C | 57% | 1008.6 hPa | - | - | - | - |
| 1778080285 | 8.89° C | 47% | 1008.4 hPa | - | - | - | - |
| 1778079384 | 7.22° C | 51% | 1008.4 hPa | - | - | - | - |
| 1778078484 | 5.56° C | 58% | 1008.3 hPa | - | - | - | - |
| 1778077583 | 4.44° C | 59% | 1008.3 hPa | - | - | - | - |
| 1778076682 | 3.89° C | 60% | 1008.3 hPa | - | - | - | - |
| 1778075782 | 3.33° C | 68% | 1008.1 hPa | - | - | - | - |
| 1778074881 | 3.33° C | 65% | 1008.1 hPa | - | - | - | - |
| 1778073980 | 4.44° C | 58% | 1007.8 hPa | - | - | - | - |
| 1778073079 | 5.56° C | 54% | 1007.8 hPa | - | - | - | - |
| 1778072179 | 5.56° C | 55% | 1007.7 hPa | - | - | - | - |
| 1778071279 | 5.56° C | 56% | 1007.5 hPa | - | - | - | - |
| 1778070378 | 6.11° C | 57% | 1007.3 hPa | - | - | - | - |
| 1778069477 | 3.89° C | 63% | 1007.3 hPa | - | - | - | - |
| 1778068577 | 4.44° C | 56% | 1007 hPa | - | - | - | - |
| 1778067677 | 5.56° C | 65% | 1006.9 hPa | - | - | - | - |
| 1778066775 | 5.56° C | 70% | 1006.7 hPa | - | - | - | - |
| 1778065874 | 4.44° C | 78% | 1006.6 hPa | - | - | - | - |
| 1778064974 | 3.89° C | 100% | 1006.6 hPa | - | - | - | - |
| 1778064073 | 2.78° C | 100% | 1006.6 hPa | - | - | - | - |
| 1778063202 | 1.67° C | 91% | 1006.6 hPa | - | - | - | - |
| 1778063190 | 1.67° C | 91% | 1006.6 hPa | - | - | - | - |
| 1778062300 | 3.89° C | 66% | 1006.2 hPa | - | - | - | - |
| 1778062289 | 3.89° C | 66% | 1006.2 hPa | - | - | - | - |
| 1778061394 | 3.33° C | 72% | 1006 hPa | - | - | - | - |
* Rain since midnight (hover to see other rain measurements)
** Current wind speed in m/s (hover to see current wind gust speed)